Back to Top

Language: 

My Weather Underground Personal Weather Station Historical Data with Graphs...

Delerius Weather Station Historical Data
Daily Summary for May 18, 2017 Units:  Metric    English   Both
« Previous Day
Next Day »
Daily Weekly Monthly Yearly Custom
  High: Low: Average:
Temperature: 18.1 °C 4.2 °C 11.8 °C
Dew Point: 10.4 °C 3.6 °C 8.2 °C
Humidity: 98 % 51 % 81 %
Wind Speed: 14.5 km/h 0 km/h 3.9 km/h
Wind Gust: 22.5 km/h - -
Wind:- - WNW
Pressure: 1012.4 hPa 1010.7 hPa -
Precipitation: 1.27 mm    
Historical Graphs
 
 
Tabular Data for May 18, 2017
Time Temperature Dew Point Pressure Wind Wind Speed Wind Gust Humidity Rainfall Rate (Hourly) solar Conditions
00:01 9 °C 8.2 °C 1011.4 hPa WNW 8 km/h 12.9 km/h 95 % 0 mm 0 W/m2
00:06 8.9 °C 8.2 °C 1011.4 hPa WNW 6.4 km/h 12.9 km/h 95 % 0 mm 0 W/m2
00:11 8.8 °C 7.9 °C 1011.4 hPa WNW 6.4 km/h 12.9 km/h 94 % 0 mm 0 W/m2
00:16 8.8 °C 7.9 °C 1011.4 hPa WNW 6.4 km/h 11.3 km/h 94 % 0 mm 0 W/m2
00:21 8.7 °C 7.8 °C 1011.4 hPa WNW 6.4 km/h 11.3 km/h 94 % 0 mm 0 W/m2
00:26 8.6 °C 7.7 °C 1011.4 hPa WNW 6.4 km/h 12.9 km/h 94 % 0 mm 0 W/m2
00:31 8.6 °C 7.7 °C 1011.1 hPa WNW 6.4 km/h 12.9 km/h 94 % 0 mm 0 W/m2
00:36 8.6 °C 7.7 °C 1011.4 hPa WNW 6.4 km/h 14.5 km/h 94 % 0 mm 0 W/m2
00:41 8.5 °C 7.6 °C 1011.4 hPa WNW 8 km/h 14.5 km/h 94 % 0 mm 0 W/m2
00:46 8.4 °C 7.5 °C 1011.4 hPa WNW 8 km/h 12.9 km/h 94 % 0 mm 0 W/m2
00:51 8.4 °C 7.3 °C 1011.1 hPa WNW 8 km/h 12.9 km/h 93 % 0 mm 0 W/m2
00:56 8.3 °C 7.2 °C 1011.1 hPa WNW 8 km/h 12.9 km/h 93 % 0 mm 0 W/m2
01:01 8.3 °C 7.2 °C 1011.1 hPa WNW 6.4 km/h 12.9 km/h 93 % 0 mm 0 W/m2
01:06 8.2 °C 7.1 °C 1011.1 hPa WNW 6.4 km/h 12.9 km/h 93 % 0 mm 0 W/m2
01:11 8.2 °C 7.1 °C 1011.1 hPa WNW 8 km/h 12.9 km/h 93 % 0 mm 0 W/m2
01:16 8.1 °C 7.1 °C 1011.1 hPa WNW 6.4 km/h 12.9 km/h 93 % 0 mm 0 W/m2
01:21 8.1 °C 7.1 °C 1011.1 hPa WNW 4.8 km/h 11.3 km/h 93 % 0 mm 0 W/m2
01:26 8 °C 6.9 °C 1011.1 hPa WNW 6.4 km/h 11.3 km/h 93 % 0 mm 0 W/m2
01:31 7.9 °C 6.8 °C 1011.1 hPa WNW 6.4 km/h 11.3 km/h 93 % 0 mm 0 W/m2
01:36 7.9 °C 6.8 °C 1011.1 hPa NW 4.8 km/h 12.9 km/h 93 % 0 mm 0 W/m2
01:41 7.8 °C 6.7 °C 1011.1 hPa NW 4.8 km/h 12.9 km/h 93 % 0 mm 0 W/m2
01:46 7.7 °C 6.7 °C 1011.1 hPa WNW 1.6 km/h 9.7 km/h 93 % 0 mm 0 W/m2
01:56 7.4 °C 6.3 °C 1011.1 hPa Calm     93 % 0 mm 0 W/m2
02:01 7.3 °C 6.2 °C 1010.7 hPa Calm   1.6 km/h 93 % 0 mm 0 W/m2
02:06 7.1 °C 6.1 °C 1011.1 hPa Calm   1.6 km/h 93 % 0 mm 0 W/m2
02:11 6.9 °C 5.8 °C 1011.1 hPa Calm     93 % 0 mm 0 W/m2
02:16 6.8 °C 5.7 °C 1011.1 hPa Calm   6.4 km/h 93 % 0 mm 0 W/m2
02:21 6.7 °C 5.7 °C 1011.1 hPa WNW 1.6 km/h 6.4 km/h 93 % 0 mm 0 W/m2
02:26 6.6 °C 5.6 °C 1011.1 hPa WNW 1.6 km/h 8 km/h 93 % 0 mm 0 W/m2
02:31 6.6 °C 5.7 °C 1011.1 hPa WNW 1.6 km/h 8 km/h 94 % 0 mm 0 W/m2
02:36 6.5 °C 5.6 °C 1011.1 hPa WNW 1.6 km/h 8 km/h 94 % 0 mm 0 W/m2
02:42 6.4 °C 5.5 °C 1011.1 hPa Calm     94 % 0 mm 0 W/m2
02:47 6.4 °C 5.5 °C 1011.1 hPa Calm     94 % 0 mm 0 W/m2
02:52 6.3 °C 5.4 °C 1010.7 hPa Calm   1.6 km/h 94 % 0 mm 0 W/m2
02:57 6.3 °C 5.4 °C 1010.7 hPa Calm   1.6 km/h 94 % 0 mm 0 W/m2
03:02 6.2 °C 5.3 °C 1010.7 hPa Calm     94 % 0 mm 0 W/m2
03:07 6.1 °C 5.2 °C 1010.7 hPa Calm     94 % 0 mm 0 W/m2
03:12 6 °C 5.1 °C 1010.7 hPa Calm     94 % 0 mm 0 W/m2
03:17 5.8 °C 4.9 °C 1010.7 hPa Calm     94 % 0 mm 0 W/m2
03:22 5.8 °C 4.9 °C 1010.7 hPa Calm     94 % 0 mm 0 W/m2
03:27 5.6 °C 4.7 °C 1010.7 hPa Calm     94 % 0 mm 0 W/m2
03:32 5.5 °C 4.8 °C 1010.7 hPa Calm     95 % 0 mm 0 W/m2
03:37 5.4 °C 4.5 °C 1010.7 hPa Calm     94 % 0 mm 0 W/m2
03:42 5.3 °C 4.6 °C 1011.1 hPa Calm   1.6 km/h 95 % 0 mm 0 W/m2
03:47 5.2 °C 4.3 °C 1010.7 hPa Calm   1.6 km/h 94 % 0 mm 0 W/m2
03:52 5.1 °C 4.4 °C 1011.1 hPa Calm     95 % 0 mm 0 W/m2
03:57 5.1 °C 4.4 °C 1010.7 hPa Calm     95 % 0 mm 0 W/m2
04:02 5 °C 4.3 °C 1010.7 hPa Calm     95 % 0 mm 0 W/m2
04:07 4.9 °C 4.2 °C 1010.7 hPa Calm     95 % 0 mm 0 W/m2
04:12 4.8 °C 4.1 °C 1010.7 hPa Calm     95 % 0 mm 0 W/m2
04:17 4.7 °C 3.9 °C 1011.1 hPa Calm     95 % 0 mm 0 W/m2
04:22 4.7 °C 3.9 °C 1011.1 hPa Calm     95 % 0 mm 0 W/m2
04:27 4.6 °C 3.9 °C 1011.1 hPa Calm     95 % 0 mm 0 W/m2
04:32 4.6 °C 3.9 °C 1011.1 hPa Calm     95 % 0 mm 0 W/m2
04:37 4.6 °C 4 °C 1011.1 hPa Calm   1.6 km/h 96 % 0 mm 0 W/m2
04:42 4.6 °C 4 °C 1011.1 hPa Calm   1.6 km/h 96 % 0 mm 0 W/m2
04:47 4.6 °C 4 °C 1010.7 hPa Calm     96 % 0 mm 0 W/m2
04:52 4.6 °C 4 °C 1010.7 hPa Calm     96 % 0 mm 0 W/m2
04:57 4.6 °C 4 °C 1010.7 hPa Calm     96 % 0 mm 0 W/m2
05:02 4.5 °C 3.9 °C 1010.7 hPa Calm     96 % 0 mm 0 W/m2
05:07 4.5 °C 3.9 °C 1010.7 hPa Calm     96 % 0 mm 5 W/m2
05:12 4.4 °C 3.8 °C 1010.7 hPa Calm     96 % 0 mm 7 W/m2
05:17 4.3 °C 3.7 °C 1010.7 hPa Calm     96 % 0 mm 9 W/m2
05:22 4.3 °C 3.7 °C 1011.1 hPa Calm     96 % 0 mm 11 W/m2
05:27 4.3 °C 3.7 °C 1011.1 hPa Calm     96 % 0 mm 14 W/m2
05:32 4.3 °C 3.7 °C 1011.1 hPa Calm     96 % 0 mm 16 W/m2
05:37 4.3 °C 3.7 °C 1010.7 hPa Calm     96 % 0 mm 18 W/m2
05:42 4.2 °C 3.6 °C 1010.7 hPa Calm     96 % 0 mm 18 W/m2
05:47 4.3 °C 3.7 °C 1010.7 hPa Calm     96 % 0 mm 19 W/m2
05:52 4.5 °C 4.1 °C 1011.1 hPa Calm     97 % 0 mm 21 W/m2
05:57 4.6 °C 4.2 °C 1011.1 hPa Calm     97 % 0 mm 23 W/m2
06:02 4.9 °C 4.4 °C 1011.1 hPa Calm     97 % 0 mm 25 W/m2
06:03 4.9 °C 4.4 °C 1011.1 hPa Calm     97 % 0 mm 33 W/m2
06:08 5.1 °C 4.7 °C 1011.1 hPa Calm     97 % 0 mm 109 W/m2
06:13 5.3 °C 4.9 °C 1011.1 hPa Calm     97 % 0 mm 53 W/m2
06:18 5.6 °C 5.2 °C 1011.1 hPa Calm     97 % 0 mm 47 W/m2
06:23 5.8 °C 5.5 °C 1011.1 hPa Calm     98 % 0 mm 142 W/m2
06:28 6.3 °C 6 °C 1011.1 hPa Calm   1.6 km/h 98 % 0 mm 100 W/m2
06:33 6.7 °C 6.4 °C 1011.1 hPa Calm   1.6 km/h 98 % 0 mm 60 W/m2
06:38 7.1 °C 6.8 °C 1011.1 hPa Calm     98 % 0 mm 40 W/m2
06:43 7.4 °C 7.1 °C 1011.1 hPa Calm     98 % 0 mm 74 W/m2
06:48 7.6 °C 7.3 °C 1011.1 hPa Calm     98 % 0 mm 39 W/m2
06:53 7.9 °C 7.6 °C 1011.4 hPa Calm     98 % 0 mm 39 W/m2
06:58 8.1 °C 7.8 °C 1011.4 hPa Calm     98 % 0 mm 40 W/m2
07:03 8.2 °C 7.9 °C 1011.4 hPa Calm     98 % 0 mm 42 W/m2
07:09 8.4 °C 8.1 °C 1011.4 hPa Calm     98 % 0 mm 190 W/m2
07:14 8.8 °C 8.5 °C 1011.4 hPa Calm   1.6 km/h 98 % 0 mm 251 W/m2
07:19 9.1 °C 8.8 °C 1011.4 hPa Calm   3.2 km/h 98 % 0 mm 264 W/m2
07:24 9.4 °C 9.1 °C 1011.7 hPa Calm   8 km/h 98 % 0 mm 276 W/m2
07:29 9.8 °C 9.5 °C 1011.7 hPa WNW 1.6 km/h 8 km/h 98 % 0 mm 287 W/m2
07:34 10 °C 9.7 °C 1011.7 hPa Calm   6.4 km/h 98 % 0 mm 302 W/m2
07:39 10.3 °C 10 °C 1011.7 hPa Calm   3.2 km/h 98 % 0 mm 316 W/m2
07:44 10.7 °C 10.2 °C 1011.7 hPa Calm   3.2 km/h 97 % 0 mm 332 W/m2
07:49 10.8 °C 10.2 °C 1011.7 hPa WNW 1.6 km/h 8 km/h 96 % 0 mm 352 W/m2
07:54 11 °C 10.4 °C 1011.7 hPa WNW 1.6 km/h 8 km/h 96 % 0 mm 367 W/m2
07:59 11.2 °C 10.4 °C 1011.7 hPa WNW 3.2 km/h 8 km/h 95 % 0 mm 381 W/m2
08:04 11.3 °C 10.4 °C 1011.7 hPa West 4.8 km/h 14.5 km/h 94 % 0 mm 417 W/m2
08:09 11.4 °C 10 °C 1011.7 hPa WSW 9.7 km/h 14.5 km/h 91 % 0 mm 288 W/m2
08:14 11.6 °C 10.2 °C 1012.1 hPa West 11.3 km/h 17.7 km/h 91 % 0 mm 381 W/m2
08:19 11.9 °C 10.3 °C 1012.1 hPa West 11.3 km/h 17.7 km/h 90 % 0 mm 316 W/m2
08:24 12 °C 10.1 °C 1012.1 hPa West 12.9 km/h 20.9 km/h 88 % 0 mm 213 W/m2
08:29 11.9 °C 9.8 °C 1012.1 hPa West 14.5 km/h 22.5 km/h 87 % 0 mm 230 W/m2
08:34 11.9 °C 9.6 °C 1012.1 hPa West 14.5 km/h 22.5 km/h 86 % 0 mm 183 W/m2
08:39 11.8 °C 9.6 °C 1012.1 hPa West 14.5 km/h 22.5 km/h 86 % 0 mm 232 W/m2
08:44 11.6 °C 9.3 °C 1012.1 hPa West 14.5 km/h 20.9 km/h 86 % 0 mm 178 W/m2
08:49 11.4 °C 9.2 °C 1012.1 hPa West 12.9 km/h 20.9 km/h 86 % 0 mm 195 W/m2
08:54 11.3 °C 9.1 °C 1012.4 hPa West 11.3 km/h 20.9 km/h 86 % 0 mm 237 W/m2
08:59 11.4 °C 9.3 °C 1012.4 hPa West 11.3 km/h 19.3 km/h 87 % 0 mm 253 W/m2
09:04 11.6 °C 9.5 °C 1012.4 hPa West 9.7 km/h 19.3 km/h 87 % 0 mm 209 W/m2
09:09 11.7 °C 9.4 °C 1012.4 hPa West 9.7 km/h 19.3 km/h 86 % 0 mm 360 W/m2
09:14 12 °C 9.6 °C 1012.4 hPa West 9.7 km/h 16.1 km/h 85 % 0 mm 707 W/m2
09:19 12.3 °C 9.8 °C 1012.4 hPa West 8 km/h 16.1 km/h 85 % 0 mm 633 W/m2
09:24 12.7 °C 10.1 °C 1012.4 hPa West 8 km/h 14.5 km/h 84 % 0 mm 694 W/m2
09:29 12.9 °C 9.9 °C 1012.4 hPa West 8 km/h 14.5 km/h 82 % 0 mm 308 W/m2
09:34 13 °C 9.6 °C 1012.1 hPa West 9.7 km/h 17.7 km/h 80 % 0 mm 250 W/m2
09:39 13.1 °C 9.7 °C 1012.1 hPa WSW 11.3 km/h 17.7 km/h 80 % 0 mm 828 W/m2
09:44 13.2 °C 9.8 °C 1012.1 hPa West 8 km/h 17.7 km/h 80 % 0 mm 227 W/m2
09:49 13.5 °C 9.9 °C 1012.1 hPa WNW 8 km/h 17.7 km/h 79 % 0 mm 227 W/m2
09:54 13.7 °C 9.9 °C 1012.1 hPa WNW 8 km/h 17.7 km/h 78 % 0 mm 814 W/m2
09:59 14.2 °C 10.2 °C 1012.1 hPa WNW 9.7 km/h 19.3 km/h 77 % 0 mm 789 W/m2
10:04 14.5 °C 10.1 °C 1012.1 hPa WNW 9.7 km/h 19.3 km/h 75 % 0 mm 881 W/m2
10:09 14.6 °C 10 °C 1012.1 hPa West 11.3 km/h 22.5 km/h 74 % 0 mm 501 W/m2
10:14 14.8 °C 10.4 °C 1012.1 hPa West 11.3 km/h 22.5 km/h 75 % 0 mm 768 W/m2
10:19 15 °C 10.4 °C 1012.1 hPa West 9.7 km/h 17.7 km/h 74 % 0 mm 773 W/m2
10:24 15.1 °C 10.1 °C 1012.1 hPa WSW 9.7 km/h 17.7 km/h 72 % 0 mm 791 W/m2
10:29 15 °C 9.8 °C 1012.1 hPa WSW 9.7 km/h 17.7 km/h 71 % 0 mm 828 W/m2
10:30 15 °C 9.8 °C 1012.1 hPa WSW 9.7 km/h 17.7 km/h 71 % 0 mm 842 W/m2
10:35 15.1 °C 10.3 °C 1012.1 hPa WSW 11.3 km/h 20.9 km/h 73 % 0 mm 865 W/m2
10:40 15.4 °C 9.9 °C 1012.1 hPa West 9.7 km/h 20.9 km/h 70 % 0 mm 963 W/m2
10:45 15.7 °C 10 °C 1012.1 hPa West 11.3 km/h 20.9 km/h 69 % 0 mm 991 W/m2
10:50 15.8 °C 10.1 °C 1012.1 hPa West 11.3 km/h 17.7 km/h 69 % 0 mm 237 W/m2
10:55 15.7 °C 10 °C 1012.1 hPa West 9.7 km/h 14.5 km/h 69 % 0 mm 229 W/m2
11:00 15.7 °C 9.8 °C 1012.1 hPa WNW 6.4 km/h 14.5 km/h 68 % 0 mm 561 W/m2
11:05 15.9 °C 10 °C 1012.1 hPa WNW 6.4 km/h 16.1 km/h 68 % 0 mm 220 W/m2
11:10 16 °C 9.9 °C 1012.1 hPa WNW 6.4 km/h 16.1 km/h 67 % 0 mm 974 W/m2
11:15 15.9 °C 9.6 °C 1012.1 hPa WNW 6.4 km/h 14.5 km/h 66 % 0 mm 287 W/m2
11:20 15.8 °C 9.9 °C 1012.1 hPa West 8 km/h 14.5 km/h 68 % 0 mm 1113 W/m2
11:25 16 °C 9.7 °C 1012.1 hPa West 8 km/h 14.5 km/h 66 % 0 mm 1016 W/m2
11:30 16.1 °C 9.7 °C 1012.1 hPa West 8 km/h 14.5 km/h 66 % 0 mm 327 W/m2
11:35 16.2 °C 9.6 °C 1012.1 hPa West 8 km/h 14.5 km/h 65 % 0 mm 301 W/m2
11:40 16.3 °C 9.7 °C 1012.1 hPa West 6.4 km/h 16.1 km/h 65 % 0 mm 473 W/m2
11:45 16.2 °C 9.4 °C 1012.1 hPa WSW 8 km/h 16.1 km/h 64 % 0 mm 269 W/m2
11:50 15.9 °C 9.1 °C 1012.1 hPa West 9.7 km/h 17.7 km/h 64 % 0 mm 267 W/m2
11:55 15.8 °C 9.4 °C 1011.7 hPa West 8 km/h 17.7 km/h 66 % 0 mm 274 W/m2
12:00 15.9 °C 9.8 °C 1011.7 hPa WNW 8 km/h 14.5 km/h 67 % 0 mm 1055 W/m2
12:05 16.1 °C 9.5 °C 1011.7 hPa NW 8 km/h 14.5 km/h 65 % 0 mm 294 W/m2
12:10 16.2 °C 9.4 °C 1011.7 hPa WNW 8 km/h 14.5 km/h 64 % 0 mm 592 W/m2
12:15 16.4 °C 9.8 °C 1011.7 hPa WNW 4.8 km/h 12.9 km/h 65 % 0 mm 1171 W/m2
12:20 16.6 °C 9.3 °C 1011.7 hPa West 3.2 km/h 9.7 km/h 62 % 0 mm 1164 W/m2
12:25 17 °C 9.4 °C 1011.7 hPa West 8 km/h 19.3 km/h 61 % 0 mm 309 W/m2
12:30 16.9 °C 9.1 °C 1011.7 hPa West 9.7 km/h 19.3 km/h 60 % 0 mm 381 W/m2
12:35 16.6 °C 8.6 °C 1011.7 hPa West 8 km/h 14.5 km/h 59 % 0 mm 462 W/m2
12:40 16.5 °C 8.7 °C 1011.7 hPa West 6.4 km/h 12.9 km/h 60 % 0 mm 360 W/m2
12:45 16.4 °C 8.4 °C 1011.7 hPa West 6.4 km/h 12.9 km/h 59 % 0 mm 380 W/m2
12:50 16.7 °C 8.9 °C 1011.7 hPa West 6.4 km/h 11.3 km/h 60 % 0 mm 1037 W/m2
12:55 17.1 °C 9 °C 1011.4 hPa West 4.8 km/h 11.3 km/h 59 % 0 mm 1048 W/m2
13:00 17.2 °C 8.6 °C 1011.4 hPa WSW 4.8 km/h 11.3 km/h 57 % 0 mm 487 W/m2
13:05 17.3 °C 8.4 °C 1011.4 hPa West 6.4 km/h 12.9 km/h 56 % 0 mm 487 W/m2
13:10 17.5 °C 8.9 °C 1011.7 hPa WNW 6.4 km/h 12.9 km/h 57 % 0 mm 668 W/m2
13:12 17.6 °C 8.7 °C 1011.7 hPa WNW 6.4 km/h 12.9 km/h 56 % 0 mm 390 W/m2
13:17 17.6 °C 7.9 °C 1011.7 hPa West 6.4 km/h 11.3 km/h 53 % 0 mm 403 W/m2
13:22 17.4 °C 8.8 °C 1011.7 hPa West 6.4 km/h 11.3 km/h 57 % 0 mm 403 W/m2
13:32 17.4 °C 8.3 °C 1011.4 hPa WNW 4.8 km/h 14.5 km/h 55 % 0 mm 476 W/m2
13:37 17.5 °C 8.6 °C 1011.4 hPa NW 4.8 km/h 11.3 km/h 56 % 0 mm 466 W/m2
13:42 17.7 °C 8.8 °C 1011.1 hPa NW 4.8 km/h 12.9 km/h 56 % 0 mm 995 W/m2
13:47 17.9 °C 8.7 °C 1011.4 hPa WNW 6.4 km/h 12.9 km/h 55 % 0 mm 930 W/m2
13:52 18 °C 8.6 °C 1011.1 hPa WNW 4.8 km/h 12.9 km/h 54 % 0 mm 958 W/m2
13:57 18.1 °C 8.1 °C 1011.4 hPa WNW 1.6 km/h 11.3 km/h 52 % 0 mm 981 W/m2
14:02 18.1 °C 7.8 °C 1011.1 hPa WNW 1.6 km/h 9.7 km/h 51 % 0 mm 923 W/m2
14:04 18.1 °C 8.1 °C 1011.1 hPa West 3.2 km/h 9.7 km/h 52 % 0 mm 227 W/m2
14:08 17.9 °C 7.9 °C 1011.4 hPa West 4.8 km/h 9.7 km/h 52 % 0 mm 311 W/m2
14:13 17.7 °C 8.3 °C 1011.4 hPa SW 4.8 km/h 11.3 km/h 54 % 0 mm 309 W/m2
14:18 17.4 °C 7.7 °C 1011.4 hPa SSE 3.2 km/h 12.9 km/h 53 % 0 mm 322 W/m2
14:23 17.4 °C 7.7 °C 1011.4 hPa SW 4.8 km/h 12.9 km/h 53 % 0 mm 357 W/m2
14:28 17.7 °C 8.6 °C 1011.1 hPa West 6.4 km/h 12.9 km/h 55 % 0 mm 1074 W/m2
14:33 17.9 °C 7.9 °C 1011.1 hPa WNW 6.4 km/h 12.9 km/h 52 % 0 mm 271 W/m2
14:38 17.8 °C 8.4 °C 1011.1 hPa WNW 4.8 km/h 12.9 km/h 54 % 0 mm 909 W/m2
14:43 18 °C 8.3 °C 1011.1 hPa WNW 6.4 km/h 12.9 km/h 53 % 0 mm 288 W/m2
14:48 17.9 °C 7.6 °C 1011.1 hPa WNW 8 km/h 12.9 km/h 51 % 0 mm 225 W/m2
14:53 17.7 °C 7.4 °C 1011.1 hPa West 8 km/h 12.9 km/h 51 % 0 mm 171 W/m2
14:59 17.6 °C 7.6 °C 1011.1 hPa WNW 8 km/h 12.9 km/h 52 % 0 mm 127 W/m2
15:04 17.6 °C 7.6 °C 1011.1 hPa WNW 6.4 km/h 11.3 km/h 52 % 0 mm 111 W/m2
15:09 17.4 °C 7.2 °C 1011.1 hPa WNW 6.4 km/h 9.7 km/h 51 % 0 mm 130 W/m2
15:19 17.1 °C 7.4 °C 1011.1 hPa WNW 4.8 km/h 8 km/h 53 % 0 mm 107 W/m2
15:24 16.9 °C 7.8 °C 1011.1 hPa WNW 3.2 km/h 8 km/h 55 % 0 mm 91 W/m2
15:28 16.9 °C 8.1 °C 1011.1 hPa WNW 3.2 km/h 8 km/h 56 % 0 mm 116 W/m2
15:33 16.9 °C 8.3 °C 1011.1 hPa WNW 1.6 km/h 6.4 km/h 57 % 0 mm 127 W/m2
15:38 16.9 °C 9.3 °C 1011.1 hPa WNW 3.2 km/h 8 km/h 61 % 0 mm 125 W/m2
15:43 16.7 °C 10.3 °C 1011.1 hPa WNW 4.8 km/h 9.7 km/h 66 % 0 mm 153 W/m2
15:48 16.6 °C 10.4 °C 1011.1 hPa WNW 4.8 km/h 11.3 km/h 67 % 0 mm 225 W/m2
15:53 16.4 °C 10.1 °C 1011.4 hPa WNW 4.8 km/h 11.3 km/h 66 % 0 mm 181 W/m2
15:58 16.3 °C 10.4 °C 1011.4 hPa NW 3.2 km/h 9.7 km/h 68 % 0 mm 139 W/m2
16:03 16.1 °C 9.3 °C 1011.1 hPa WNW 4.8 km/h 12.9 km/h 64 % 0 mm 165 W/m2
16:08 16 °C 8.9 °C 1011.1 hPa WNW 8 km/h 19.3 km/h 63 % 0 mm 162 W/m2
16:13 15.9 °C 8.8 °C 1011.1 hPa WNW 8 km/h 19.3 km/h 63 % 0 mm 288 W/m2
16:18 15.9 °C 8.6 °C 1011.1 hPa WNW 8 km/h 12.9 km/h 62 % 0 mm 213 W/m2
16:23 16 °C 8.5 °C 1011.4 hPa WNW 8 km/h 14.5 km/h 61 % 0 mm 137 W/m2
16:28 15.9 °C 8.4 °C 1011.4 hPa WNW 8 km/h 14.5 km/h 61 % 0 mm 111 W/m2
16:33 15.9 °C 8.6 °C 1011.4 hPa NW 6.4 km/h 12.9 km/h 62 % 0 mm 116 W/m2
16:38 15.8 °C 8.8 °C 1011.4 hPa NW 6.4 km/h 11.3 km/h 63 % 0 mm 83 W/m2
16:43 15.8 °C 9.4 °C 1011.4 hPa NW 3.2 km/h 11.3 km/h 66 % 0 mm 90 W/m2
16:48 15.6 °C 9.1 °C 1011.4 hPa NNW 1.6 km/h 8 km/h 65 % 0 mm 62 W/m2
16:53 15.4 °C 8.6 °C 1011.1 hPa North 1.6 km/h 8 km/h 64 % 0 mm 60 W/m2
16:58 15.3 °C 8.8 °C 1011.1 hPa North 1.6 km/h 8 km/h 65 % 0 mm 62 W/m2
17:03 15.2 °C 8.7 °C 1011.1 hPa NNW 1.6 km/h 9.7 km/h 65 % 0 mm 95 W/m2
17:08 15.1 °C 8.8 °C 1011.4 hPa NNW 4.8 km/h 14.5 km/h 66 % 0 mm 116 W/m2
17:13 15.2 °C 9.3 °C 1011.4 hPa NW 3.2 km/h 14.5 km/h 68 % 0 mm 98 W/m2
17:18 15.1 °C 9.2 °C 1011.4 hPa NNW 3.2 km/h 12.9 km/h 68 % 0 mm 97 W/m2
17:23 14.9 °C 8.4 °C 1011.4 hPa NNW 6.4 km/h 12.9 km/h 65 % 0 mm 104 W/m2
17:24 14.9 °C 8.6 °C 1011.4 hPa NNW 6.4 km/h 12.9 km/h 66 % 0 mm 107 W/m2
17:29 14.8 °C 8.1 °C 1011.4 hPa North 8 km/h 12.9 km/h 64 % 0 mm 135 W/m2
17:34 14.8 °C 8.5 °C 1011.4 hPa North 8 km/h 12.9 km/h 66 % 0 mm 142 W/m2
17:39 14.8 °C 8.3 °C 1011.4 hPa North 8 km/h 16.1 km/h 65 % 0 mm 125 W/m2
17:44 14.8 °C 8.5 °C 1011.4 hPa North 8 km/h 16.1 km/h 66 % 0 mm 111 W/m2
17:49 14.8 °C 8.5 °C 1011.4 hPa NNW 6.4 km/h 14.5 km/h 66 % 0 mm 102 W/m2
17:54 14.8 °C 8.5 °C 1011.1 hPa North 8 km/h 14.5 km/h 66 % 0 mm 100 W/m2
17:59 14.8 °C 8.5 °C 1011.1 hPa North 6.4 km/h 14.5 km/h 66 % 0 mm 93 W/m2
18:04 14.8 °C 8.5 °C 1011.1 hPa North 8 km/h 14.5 km/h 66 % 0 mm 79 W/m2
18:09 14.8 °C 8.5 °C 1011.1 hPa North 8 km/h 16.1 km/h 66 % 0 mm 76 W/m2
18:14 14.7 °C 8.4 °C 1011.1 hPa NNW 8 km/h 16.1 km/h 66 % 0 mm 72 W/m2
18:19 14.6 °C 8.3 °C 1011.1 hPa NNW 8 km/h 17.7 km/h 66 % 0 mm 62 W/m2
18:24 14.6 °C 8.3 °C 1011.1 hPa NNW 8 km/h 17.7 km/h 66 % 0 mm 58 W/m2
18:29 14.6 °C 8.3 °C 1011.1 hPa NNW 6.4 km/h 14.5 km/h 66 % 0 mm 56 W/m2
18:34 14.6 °C 8.6 °C 1011.1 hPa NNW 4.8 km/h 11.3 km/h 67 % 0 mm 51 W/m2
18:39 14.5 °C 8.4 °C 1011.1 hPa NW 6.4 km/h 12.9 km/h 67 % 0 mm 47 W/m2
18:44 14.5 °C 8.4 °C 1011.4 hPa NW 6.4 km/h 14.5 km/h 67 % 0 mm 47 W/m2
18:49 14.4 °C 8.3 °C 1011.1 hPa NW 8 km/h 14.5 km/h 67 % 0 mm 46 W/m2
18:54 14.4 °C 9 °C 1011.1 hPa NW 6.4 km/h 12.9 km/h 70 % 0 mm 44 W/m2
18:59 14.3 °C 9.1 °C 1011.1 hPa NW 4.8 km/h 11.3 km/h 71 % 0 mm 40 W/m2
19:04 14.3 °C 9.5 °C 1011.1 hPa NW 3.2 km/h 11.3 km/h 73 % 0 mm 33 W/m2
19:05 14.3 °C 9.5 °C 1011.1 hPa NNW 1.6 km/h 8 km/h 73 % 0 mm 32 W/m2
19:10 14.2 °C 9.4 °C 1011.4 hPa Calm   8 km/h 73 % 0 mm 26 W/m2
19:15 14.1 °C 9.3 °C 1011.4 hPa Calm   3.2 km/h 73 % 0 mm 26 W/m2
19:20 13.9 °C 9.6 °C 1011.4 hPa Calm   6.4 km/h 75 % 0 mm 23 W/m2
19:21 14 °C 9.6 °C 1011.4 hPa Calm   6.4 km/h 75 % 0 mm 23 W/m2
19:26 13.8 °C 9.7 °C 1011.4 hPa ESE 3.2 km/h 9.7 km/h 76 % 0 mm 16 W/m2
19:31 13.6 °C 10 °C 1011.7 hPa SE 3.2 km/h 9.7 km/h 79 % 0 mm 16 W/m2
19:36 13.3 °C 10.1 °C 1011.7 hPa SE 1.6 km/h 8 km/h 81 % 0 mm 18 W/m2
19:41 13.2 °C 10.2 °C 1011.4 hPa Calm     82 % 0 mm 18 W/m2
19:46 13.1 °C 10.3 °C 1011.7 hPa Calm   1.6 km/h 83 % 0 mm 16 W/m2
19:51 12.9 °C 10.1 °C 1011.7 hPa Calm   1.6 km/h 83 % 0 mm 16 W/m2
19:56 12.8 °C 10.2 °C 1011.7 hPa Calm   1.6 km/h 84 % 0 mm 14 W/m2
20:01 12.7 °C 10.2 °C 1011.7 hPa Calm     85 % 0 mm 12 W/m2
20:06 12.6 °C 10.2 °C 1011.7 hPa Calm     85 % 0 mm 12 W/m2
20:11 12.5 °C 10.2 °C 1011.7 hPa Calm     86 % 0 mm 11 W/m2
20:16 12.4 °C 10.3 °C 1011.7 hPa Calm     87 % 0 mm 9 W/m2
20:21 12.2 °C 9.9 °C 1011.7 hPa Calm     86 % 0 mm 9 W/m2
20:26 12.1 °C 9.8 °C 1011.7 hPa Calm   3.2 km/h 86 % 0 mm 9 W/m2
20:31 11.9 °C 9.6 °C 1011.7 hPa Calm   3.2 km/h 86 % 0 mm 7 W/m2
20:36 11.9 °C 9.8 °C 1011.7 hPa Calm   3.2 km/h 87 % 0 mm 5 W/m2
20:41 11.8 °C 9.7 °C 1011.4 hPa Calm   3.2 km/h 87 % 0 mm 5 W/m2
20:46 11.8 °C 9.7 °C 1011.4 hPa Calm   3.2 km/h 87 % 0.25 mm 0 W/m2
20:51 11.8 °C 9.9 °C 1011.4 hPa Calm   3.2 km/h 88 % 0.25 mm 0 W/m2
20:56 11.8 °C 10.1 °C 1011.4 hPa Calm   1.6 km/h 89 % 0.25 mm 0 W/m2
21:01 11.8 °C 10.1 °C 1011.4 hPa Calm     89 % 0.25 mm 0 W/m2
21:06 11.7 °C 9.9 °C 1011.7 hPa Calm     89 % 0.25 mm 0 W/m2
21:11 11.7 °C 10.1 °C 1011.7 hPa Calm     90 % 0.25 mm 0 W/m2
21:16 11.7 °C 10.3 °C 1011.7 hPa Calm     91 % 0.25 mm 0 W/m2
21:21 11.7 °C 10.3 °C 1011.7 hPa Calm     91 % 0.25 mm 0 W/m2
21:26 11.7 °C 10.3 °C 1011.7 hPa Calm     91 % 0.25 mm 0 W/m2
21:31 11.6 °C 10.2 °C 1011.7 hPa Calm     91 % 0.25 mm 0 W/m2
21:36 11.6 °C 10.2 °C 1012.1 hPa Calm     91 % 0.25 mm 0 W/m2
21:41 11.6 °C 10.2 °C 1012.1 hPa Calm     91 % 0.25 mm 0 W/m2
21:46 11.5 °C 10.2 °C 1012.1 hPa Calm     92 % 0 mm 0 W/m2
21:51 11.4 °C 10.2 °C 1012.1 hPa Calm   4.8 km/h 92 % 0 mm 0 W/m2
21:56 11.3 °C 9.9 °C 1012.1 hPa Calm   4.8 km/h 91 % 0 mm 0 W/m2
22:01 11.2 °C 9.8 °C 1012.1 hPa ESE 1.6 km/h 6.4 km/h 91 % 0.25 mm 0 W/m2
22:06 11.1 °C 9.7 °C 1012.1 hPa ESE 1.6 km/h 6.4 km/h 91 % 0.25 mm 0 W/m2
22:11 11.1 °C 9.8 °C 1012.1 hPa Calm   4.8 km/h 92 % 0.25 mm 0 W/m2
22:16 11.2 °C 9.9 °C 1012.1 hPa ESE 1.6 km/h 6.4 km/h 92 % 0.25 mm 0 W/m2
22:22 11.1 °C 9.8 °C 1012.1 hPa ESE 1.6 km/h 6.4 km/h 92 % 0.25 mm 0 W/m2
22:27 11.1 °C 9.8 °C 1012.1 hPa Calm   3.2 km/h 92 % 0.25 mm 0 W/m2
22:32 11.1 °C 10 °C 1012.1 hPa Calm     93 % 0.25 mm 0 W/m2
22:37 11.1 °C 10 °C 1012.1 hPa Calm     93 % 0.51 mm 0 W/m2
22:42 11.1 °C 10 °C 1012.1 hPa Calm     93 % 0.51 mm 0 W/m2
22:47 10.9 °C 9.8 °C 1012.1 hPa Calm   3.2 km/h 93 % 0.51 mm 0 W/m2
22:52 10.8 °C 9.6 °C 1012.1 hPa Calm   3.2 km/h 92 % 0.51 mm 0 W/m2
22:57 10.7 °C 9.4 °C 1012.1 hPa Calm   4.8 km/h 92 % 0.25 mm 0 W/m2
23:02 10.7 °C 9.6 °C 1012.1 hPa Calm   4.8 km/h 93 % 0.25 mm 0 W/m2
23:07 10.6 °C 9.5 °C 1012.1 hPa Calm   1.6 km/h 93 % 0.51 mm 0 W/m2
23:12 10.6 °C 9.5 °C 1012.1 hPa Calm   1.6 km/h 93 % 0.51 mm 0 W/m2
23:17 10.6 °C 9.5 °C 1012.1 hPa Calm     93 % 0.51 mm 0 W/m2
23:22 10.5 °C 9.4 °C 1012.1 hPa Calm     93 % 0.51 mm 0 W/m2
23:27 10.6 °C 9.5 °C 1012.1 hPa Calm     93 % 0.51 mm 0 W/m2
23:32 10.6 °C 9.5 °C 1012.1 hPa Calm     93 % 0.51 mm 0 W/m2
23:37 10.6 °C 9.7 °C 1012.1 hPa Calm     94 % 0.51 mm 0 W/m2
23:42 10.5 °C 9.6 °C 1011.7 hPa Calm     94 % 0.51 mm 0 W/m2
23:47 10.5 °C 9.6 °C 1011.7 hPa Calm     94 % 0.51 mm 0 W/m2
23:52 10.4 °C 9.3 °C 1011.7 hPa Calm     93 % 0.51 mm 0 W/m2
23:57 10.4 °C 9.5 °C 1011.7 hPa Calm     94 % 0.51 mm 0 W/m2
Delerius-Weather
Compliments of Weather Underground - 2.25 mb

Data updates at regular intervals.